首页
METAR-TAF:

METAR-TAF

机场 :

达拉斯/沃思堡国际机场

達拉斯 / 沃思堡, 得克萨斯州, 美国

纬度: 32-53-49N, 经度: 097-01-19W, 海拔: 183米

当前天气观测

该预报发布于20分钟前的22:53 UTC
风速17节,风向,有时为25节阵风
温度 36°C
湿度 37%
气压 1006 hPa
能見度: 16.1公里
散云层高于7000英尺

METAR: KDFW 232253Z 17017G25KT 10SM SCT070 36/19 A2971 RMK AO2 PK WND 15026/2242 SLP050 T03560189

时间: 18:13 (23:13 UTC)

预报

该预报发布于2小时和8分钟前的21:05 UTC
预报有效从23日的 21点(UTC)到 24日的 24点(UTC)
风速17节,风向
能見度: 10公里
散云层高于5000英尺
多云层高于30000英尺
从 24日的 0400点(UTC)
风速18节,风向
能見度: 10公里
多云层高于4000英尺, 积雨云.
阴天层高于15000英尺
附近有雷暴
短暂存在
从 24日的 06点(UTC)到 24日的 09点(UTC)
风速15节,风向,有时为25节阵风
能見度: 6.4公里
多云层高于2500英尺, 积雨云.
阴天层高于6000英尺
雷暴, 雨
从 24日的 1000点(UTC)
风速14节,风向南转南东
能見度: 10公里
多云层高于2200英尺
多云层高于15000英尺
从 24日的 1600点(UTC)
风速20节,风向
能見度: 10公里
散云层高于4000英尺

TAF: KDFW 232105Z 2321/2424 17017KT P6SM SCT050 BKN300 FM240400 17018KT P6SM VCTS BKN040CB OVC150 TEMPO 2406/2409 35015G25KT 4SM TSRA BKN025CB OVC060 FM241000 16014KT P6SM BKN022 BKN150 FM241600 17020KT P6SM SCT040

超过4000个机场的气象观测和天气预报(METAR&TAF报告)。

可查询的气象台以黄色和红色小点在地图上表示。

将鼠标移到小点上方,可查看气象台名称。

然后点击查看天气观测和预报。

如需切换地图:点击带黑十字的绿色按钮放大地图;点击带横线的绿色按钮缩小地图;或者点击绿色箭头查看邻近地区的地图。


METAR-TAF: